Time;durP1;ratioP1;P1;durP2;ratioP2;P2;SDS_P1;SDS_P2;PMS_P1;PMS_P2;Temp;Humidity;BMP_temperature;BMP_pressure;BME280_temperature;BME280_humidity;BME280_pressure;Samples;Min_cycle;Max_cycle;Signal;HPM_P1;HPM_P2
2022/08/06 00:01:50;;;;;;;3.93;3.17;;;;;;;18.24;97.19;94433.41;4997078;28;20204;-70
2022/08/06 00:04:35;;;;;;;5.63;3.87;;;;;;;18.41;95.94;94449.88;5005929;28;20216;-70
2022/08/06 00:07:19;;;;;;;9.70;3.40;;;;;;;18.26;95.24;94450.56;5006009;28;20208;-69
2022/08/06 00:10:04;;;;;;;5.27;3.23;;;;;;;18.33;95.02;94472.19;5004749;28;20204;-73
2022/08/06 00:12:48;;;;;;;4.27;2.80;;;;;;;18.51;92.11;94502.25;5004621;28;20228;-70
2022/08/06 00:15:34;;;;;;;6.03;3.07;;;;;;;18.62;90.17;94508.44;4997387;28;20196;-71
2022/08/06 00:18:18;;;;;;;5.47;3.20;;;;;;;18.48;91.28;94508.44;5011278;28;20211;-73
2022/08/06 00:21:02;;;;;;;3.80;3.50;;;;;;;18.72;91.01;94509.69;5000607;28;20236;-73
2022/08/06 00:23:46;;;;;;;5.40;3.80;;;;;;;18.45;92.93;94512.53;5003166;28;20209;-74
2022/08/06 00:26:31;;;;;;;4.03;3.60;;;;;;;18.29;96.01;94528.72;5005877;28;20199;-72
2022/08/06 00:29:15;;;;;;;6.67;3.90;;;;;;;18.22;96.16;94532.59;5010818;28;20211;-71
2022/08/06 00:31:59;;;;;;;6.77;4.43;;;;;;;18.37;96.28;94529.88;5006067;28;20661;-72
2022/08/06 00:34:43;;;;;;;5.53;4.30;;;;;;;18.52;94.88;94519.97;5010657;28;20207;-71
2022/08/06 00:37:28;;;;;;;4.20;3.47;;;;;;;18.25;96.47;94517.16;5000690;28;20449;-75
2022/08/06 00:40:15;;;;;;;3.07;2.70;;;;;;;18.19;96.01;94506.97;5003491;28;20235;-75
2022/08/06 00:43:02;;;;;;;2.80;2.60;;;;;;;18.26;93.98;94499.50;5003356;28;20199;-72
2022/08/06 00:45:47;;;;;;;3.70;2.70;;;;;;;18.27;93.23;94497.41;4995909;28;20249;-71
2022/08/06 00:48:31;;;;;;;2.93;2.63;;;;;;;18.23;94.16;94480.16;5002468;28;20210;-69
2022/08/06 00:51:15;;;;;;;5.67;2.67;;;;;;;18.15;94.93;94472.69;5006135;28;20212;-69
2022/08/06 00:53:59;;;;;;;3.57;2.43;;;;;;;18.26;92.62;94467.56;5005990;28;20224;-70
2022/08/06 00:56:43;;;;;;;3.23;2.87;;;;;;;17.95;94.87;94457.50;5010375;28;20199;-69
2022/08/06 00:59:28;;;;;;;2.83;2.57;;;;;;;17.99;94.92;94457.69;5000582;28;20199;-69
2022/08/06 01:02:12;;;;;;;2.77;2.47;;;;;;;18.09;93.62;94449.69;5003070;28;20207;-68
2022/08/06 01:04:56;;;;;;;2.70;2.50;;;;;;;18.10;93.53;94442.66;4997741;28;20297;-68
2022/08/06 01:07:40;;;;;;;3.13;2.83;;;;;;;17.97;95.72;94432.06;5007003;28;20234;-70
2022/08/06 01:10:25;;;;;;;3.10;2.63;;;;;;;18.14;95.92;94440.06;5005928;28;20200;-69
2022/08/06 01:13:09;;;;;;;3.97;3.13;;;;;;;17.94;96.89;94436.16;5001712;28;20235;-69
2022/08/06 01:16:09;;;;;;;3.07;2.70;;;;;;;17.91;97.87;94428.91;4997578;28;20204;-71
2022/08/06 01:18:59;;;;;;;3.87;3.20;;;;;;;18.07;96.86;94424.09;4999604;28;20192;-71
2022/08/06 01:22:17;;;;;;;6.53;3.00;;;;;;;18.16;96.17;94417.44;5002859;28;20209;-69
2022/08/06 01:25:30;;;;;;;3.30;2.90;;;;;;;18.10;96.02;94417.13;5010736;28;20196;-71
2022/08/06 01:28:23;;;;;;;2.90;2.70;;;;;;;18.32;95.69;94408.31;4998768;28;20204;-69
2022/08/06 01:31:17;;;;;;;3.70;3.10;;;;;;;18.29;95.44;94409.56;5005567;28;20208;-70
2022/08/06 01:34:09;;;;;;;3.27;2.90;;;;;;;18.23;95.10;94395.06;5001383;28;20212;-69
2022/08/06 01:37:07;;;;;;;6.33;3.30;;;;;;;18.12;95.03;94391.72;5005870;28;20199;-71
2022/08/06 01:40:06;;;;;;;3.70;3.07;;;;;;;18.06;94.33;94391.41;5008202;28;20279;-70
2022/08/06 01:42:52;;;;;;;3.57;3.10;;;;;;;18.09;94.44;94392.97;5007851;28;20196;-70
2022/08/06 01:45:38;;;;;;;2.73;2.47;;;;;;;18.00;94.24;94391.09;5005287;28;20231;-70
2022/08/06 01:48:25;;;;;;;3.03;2.83;;;;;;;18.11;93.84;94393.09;5010385;28;20580;-71
2022/08/06 01:51:10;;;;;;;4.13;3.50;;;;;;;18.29;91.91;94398.22;5009452;28;20668;-69
2022/08/06 01:53:55;;;;;;;5.70;3.37;;;;;;;18.30;91.79;94400.41;5002452;28;20224;-69
2022/08/06 01:56:41;;;;;;;4.27;3.40;;;;;;;18.19;91.92;94402.00;5010777;28;20589;-69
2022/08/06 01:59:33;;;;;;;4.33;3.50;;;;;;;17.97;93.16;94398.03;5004144;28;20207;-73
2022/08/06 02:02:22;;;;;;;3.80;3.40;;;;;;;18.09;93.50;94392.97;5001089;28;20208;-69
2022/08/06 02:05:09;;;;;;;6.47;3.07;;;;;;;17.94;95.13;94410.66;5006886;28;20238;-71
2022/08/06 02:07:55;;;;;;;3.70;3.37;;;;;;;18.09;96.99;94420.59;4999496;28;20235;-70
2022/08/06 02:10:40;;;;;;;5.00;3.60;;;;;;;18.14;95.28;94425.88;5005045;28;20204;-72
2022/08/06 02:13:26;;;;;;;6.97;3.73;;;;;;;18.31;93.96;94435.94;5007601;28;20227;-69
2022/08/06 02:16:12;;;;;;;3.87;3.43;;;;;;;18.20;93.73;94431.13;5000295;28;20680;-70
2022/08/06 02:18:59;;;;;;;5.43;4.07;;;;;;;17.87;97.74;94434.38;5011223;28;20199;-70
2022/08/06 02:21:45;;;;;;;8.27;4.40;;;;;;;17.91;98.43;94426.06;4999094;28;20619;-73
2022/08/06 02:24:32;;;;;;;8.07;3.80;;;;;;;17.95;98.14;94429.13;5007587;28;20221;-71
2022/08/06 02:27:19;;;;;;;5.50;3.73;;;;;;;17.96;99.09;94424.19;5005237;28;20211;-70
2022/08/06 02:30:04;;;;;;;4.43;3.97;;;;;;;17.94;98.94;94416.31;5000606;28;20196;-70
2022/08/06 02:32:48;;;;;;;6.73;4.50;;;;;;;18.01;99.81;94420.19;5006996;28;20231;-70
2022/08/06 02:35:39;;;;;;;4.60;4.20;;;;;;;17.80;100.00;94409.91;5000663;28;20291;-70
2022/08/06 02:38:31;;;;;;;4.93;4.43;;;;;;;18.01;100.00;94414.53;5001129;28;20210;-69
2022/08/06 02:41:18;;;;;;;4.50;4.13;;;;;;;18.21;98.42;94409.16;5008161;28;20211;-70
2022/08/06 02:44:09;;;;;;;6.10;4.70;;;;;;;18.43;96.25;94413.13;5006048;28;20196;-70
2022/08/06 02:47:01;;;;;;;6.40;4.40;;;;;;;18.51;95.52;94413.53;5004550;28;20214;-70
2022/08/06 02:49:50;;;;;;;5.00;3.80;;;;;;;18.59;94.96;94422.44;5005161;28;20200;-70
2022/08/06 02:52:42;;;;;;;4.50;4.10;;;;;;;18.45;96.20;94416.06;5002479;28;20201;-70
2022/08/06 02:55:30;;;;;;;5.50;4.17;;;;;;;18.36;98.26;94414.16;4998051;28;20633;-70
2022/08/06 02:58:22;;;;;;;4.77;4.00;;;;;;;18.39;98.58;94415.75;5003051;28;20563;-70
2022/08/06 03:01:11;;;;;;;6.20;3.90;;;;;;;18.40;96.99;94414.38;4998337;28;20204;-70
2022/08/06 03:03:58;;;;;;;5.43;3.63;;;;;;;18.18;98.41;94417.56;5007331;28;20461;-70
2022/08/06 03:06:46;;;;;;;4.30;3.90;;;;;;;18.30;97.23;94400.41;5008770;28;20208;-70
2022/08/06 03:09:30;;;;;;;4.50;3.27;;;;;;;18.66;92.82;94395.84;5012820;28;20206;-71
2022/08/06 03:12:16;;;;;;;3.80;3.40;;;;;;;18.69;91.15;94403.09;5001962;28;20211;-70
2022/08/06 03:15:02;;;;;;;4.13;3.13;;;;;;;18.62;90.18;94401.31;5010679;28;20207;-70
2022/08/06 03:17:48;;;;;;;3.97;3.00;;;;;;;18.65;90.63;94405.72;5007470;28;20234;-70
2022/08/06 03:20:34;;;;;;;5.27;3.10;;;;;;;18.81;89.64;94408.63;5012621;28;20660;-70
2022/08/06 03:23:20;;;;;;;3.83;3.30;;;;;;;18.83;89.41;94412.28;5005138;28;20208;-69
2022/08/06 03:26:07;;;;;;;5.33;3.10;;;;;;;18.88;87.82;94411.13;4998182;28;20208;-70
2022/08/06 03:28:56;;;;;;;3.30;3.00;;;;;;;18.70;89.84;94418.72;5003935;28;20201;-69
2022/08/06 03:31:40;;;;;;;3.70;2.63;;;;;;;18.63;90.43;94414.16;5008603;28;20206;-69
2022/08/06 03:34:26;;;;;;;3.53;2.83;;;;;;;18.93;88.57;94417.72;5010828;28;20227;-70
2022/08/06 03:37:12;;;;;;;3.67;2.67;;;;;;;18.86;89.53;94413.84;5007396;28;20572;-70
2022/08/06 03:39:58;;;;;;;5.33;3.60;;;;;;;18.66;92.33;94412.13;5004712;28;20261;-70
2022/08/06 03:42:42;;;;;;;6.27;5.43;;;;;;;18.69;92.16;94420.13;5011262;28;20204;-70
2022/08/06 03:45:28;;;;;;;7.37;5.53;;;;;;;18.86;91.35;94430.88;5006471;28;20399;-71
2022/08/06 03:48:16;;;;;;;7.93;7.00;;;;;;;18.81;90.86;94439.84;5006266;28;20207;-73
2022/08/06 03:51:03;;;;;;;11.10;7.97;;;;;;;18.59;92.73;94436.63;5003133;28;20211;-72
2022/08/06 03:53:49;;;;;;;8.90;8.00;;;;;;;18.59;93.23;94442.31;5010139;28;20212;-70
2022/08/06 03:56:37;;;;;;;10.13;8.10;;;;;;;18.53;93.49;94441.97;5002931;28;20284;-71
2022/08/06 03:59:23;;;;;;;12.00;9.80;;;;;;;18.55;92.93;94433.59;5005991;28;20562;-71
2022/08/06 04:02:08;;;;;;;11.87;9.73;;;;;;;18.47;92.41;94441.69;5010458;28;20222;-72
2022/08/06 04:04:52;;;;;;;12.53;9.93;;;;;;;18.54;92.53;94451.97;5003176;28;20217;-72
2022/08/06 04:07:38;;;;;;;11.90;9.17;;;;;;;18.62;92.98;94446.00;5003685;28;20196;-69
2022/08/06 04:10:28;;;;;;;16.40;11.77;;;;;;;18.82;91.54;94453.41;5008097;28;20668;-69
2022/08/06 04:13:15;;;;;;;14.90;11.73;;;;;;;18.72;90.59;94444.38;5005454;28;20710;-70
2022/08/06 04:16:01;;;;;;;14.60;11.93;;;;;;;18.64;91.72;94452.50;5000207;28;20303;-69
2022/08/06 04:18:46;;;;;;;23.10;15.27;;;;;;;18.55;91.95;94470.50;5008246;28;20200;-70
2022/08/06 04:21:30;;;;;;;21.07;16.13;;;;;;;18.47;92.86;94464.38;5010635;28;20200;-71
2022/08/06 04:24:14;;;;;;;22.97;16.17;;;;;;;18.61;92.33;94467.97;5001113;28;20209;-72
2022/08/06 04:27:02;;;;;;;22.13;16.53;;;;;;;18.46;93.43;94474.25;5002004;28;20199;-74
2022/08/06 04:29:48;;;;;;;24.80;16.37;;;;;;;18.59;92.53;94476.38;4999552;28;20201;-71
2022/08/06 04:32:32;;;;;;;23.63;16.60;;;;;;;18.45;94.09;94473.53;4999127;28;20201;-70
2022/08/06 04:35:17;;;;;;;30.47;17.77;;;;;;;18.60;93.70;94483.53;5007430;28;20559;-70
2022/08/06 04:38:01;;;;;;;28.33;17.43;;;;;;;18.61;93.75;94485.00;4998997;28;20203;-70
2022/08/06 04:40:46;;;;;;;30.97;17.57;;;;;;;18.73;92.55;94485.59;5006425;28;20278;-70
2022/08/06 04:43:31;;;;;;;32.43;18.50;;;;;;;18.35;94.36;94486.47;4996208;28;20200;-72
2022/08/06 04:46:16;;;;;;;28.67;17.80;;;;;;;18.51;94.40;94487.31;4998994;28;20283;-70
2022/08/06 04:49:00;;;;;;;34.00;19.00;;;;;;;18.66;94.02;94495.19;5008945;28;20210;-70
2022/08/06 04:51:45;;;;;;;36.40;20.50;;;;;;;18.48;94.54;94499.91;5010021;28;20200;-72
2022/08/06 04:54:30;;;;;;;29.23;17.40;;;;;;;18.27;96.74;94505.94;5001253;28;20692;-71
2022/08/06 04:57:14;;;;;;;26.93;17.43;;;;;;;18.39;97.34;94506.56;5000049;28;20215;-69
2022/08/06 04:59:58;;;;;;;30.00;19.20;;;;;;;18.43;95.91;94504.66;5004137;28;20291;-70
2022/08/06 05:02:42;;;;;;;32.47;19.73;;;;;;;18.38;95.56;94507.91;5000246;28;20937;-70
2022/08/06 05:05:30;;;;;;;25.00;18.43;;;;;;;18.32;96.95;94499.81;5010373;28;20295;-70
2022/08/06 05:08:15;;;;;;;29.00;19.03;;;;;;;18.43;96.28;94495.41;5009604;28;20223;-70
2022/08/06 05:11:16;;;;;;;26.60;18.00;;;;;;;18.38;96.44;94502.25;5001302;28;20208;-70
2022/08/06 05:14:09;;;;;;;19.80;13.73;;;;;;;18.07;98.47;94517.69;4999661;28;20699;-73
2022/08/06 05:16:55;;;;;;;18.97;13.87;;;;;;;18.20;97.79;94510.53;5010116;28;20211;-69
2022/08/06 05:19:48;;;;;;;16.33;13.53;;;;;;;18.12;97.63;94516.53;4997567;28;20199;-69
2022/08/06 05:22:34;;;;;;;20.97;15.67;;;;;;;18.11;98.44;94517.16;4997130;28;20661;-69
2022/08/06 05:25:18;;;;;;;21.63;16.83;;;;;;;18.04;99.53;94516.09;5000019;28;20196;-69
2022/08/06 05:28:06;;;;;;;25.07;16.60;;;;;;;18.09;99.79;94514.94;5005578;28;20210;-70
2022/08/06 05:30:51;;;;;;;35.03;18.57;;;;;;;18.17;99.49;94529.56;5010089;28;20211;-69
2022/08/06 05:33:38;;;;;;;60.03;18.30;;;;;;;17.93;100.00;94516.91;4996170;28;20220;-73
2022/08/06 05:36:23;;;;;;;89.27;22.17;;;;;;;17.91;100.00;94519.63;5011840;28;20204;-69
2022/08/06 05:39:07;;;;;;;185.07;24.90;;;;;;;17.81;100.00;94521.94;5005837;28;20243;-71
2022/08/06 05:41:51;;;;;;;35.73;20.73;;;;;;;18.11;100.00;94525.66;5008360;28;20203;-70
2022/08/06 05:44:35;;;;;;;145.30;22.03;;;;;;;18.18;99.28;94531.03;4994097;28;20193;-69
2022/08/06 05:47:23;;;;;;;28.17;16.43;;;;;;;18.14;98.58;94525.16;5006790;28;20225;-70
2022/08/06 05:50:17;;;;;;;254.03;25.23;;;;;;;17.90;98.89;94523.84;5007233;28;20291;-70
2022/08/06 05:53:08;;;;;;;151.00;20.87;;;;;;;17.92;99.33;94529.63;5007823;28;20231;-71
2022/08/06 05:55:59;;;;;;;404.27;30.07;;;;;;;17.83;99.89;94536.22;4999918;28;20200;-70
2022/08/06 05:58:56;;;;;;;351.87;30.83;;;;;;;17.57;100.00;94537.59;4998920;28;20251;-73
2022/08/06 06:01:41;;;;;;;392.60;35.13;;;;;;;17.76;100.00;94537.25;5002822;28;20200;-71
2022/08/06 06:04:26;;;;;;;433.50;30.73;;;;;;;17.75;100.00;94552.78;5007516;28;20584;-70
2022/08/06 06:07:10;;;;;;;369.23;26.50;;;;;;;17.69;100.00;94555.28;4995808;28;20624;-75
2022/08/06 06:09:55;;;;;;;527.97;33.00;;;;;;;17.55;100.00;94557.31;5001428;28;20271;-70
2022/08/06 06:12:40;;;;;;;85.17;16.90;;;;;;;17.61;100.00;94557.69;4995990;28;20266;-71
2022/08/06 06:15:24;;;;;;;20.67;14.20;;;;;;;17.76;100.00;94560.69;4995921;28;20661;-70
2022/08/06 06:18:25;;;;;;;47.80;13.33;;;;;;;17.51;100.00;94565.59;5005953;28;20212;-72
2022/08/06 06:21:27;;;;;;;30.43;15.60;;;;;;;17.59;100.00;94571.72;5002523;28;20204;-72
2022/08/06 06:24:26;;;;;;;12.67;10.10;;;;;;;17.40;100.00;94565.00;4999673;28;20196;-73
2022/08/06 06:27:15;;;;;;;13.13;10.47;;;;;;;17.38;99.32;94579.09;5000015;28;20686;-71
2022/08/06 06:30:06;;;;;;;11.53;10.33;;;;;;;17.20;98.12;94580.16;4999113;28;20208;-72
2022/08/06 06:33:14;;;;;;;13.23;10.47;;;;;;;16.90;98.94;94577.03;5006808;28;20227;-69
2022/08/06 06:36:05;;;;;;;15.83;12.10;;;;;;;17.11;98.90;94584.59;5008591;28;20212;-71
2022/08/06 06:39:03;;;;;;;12.13;10.23;;;;;;;16.68;98.86;94589.13;5004769;28;20204;-70
2022/08/06 06:41:54;;;;;;;14.00;11.27;;;;;;;16.71;98.84;94599.22;5002833;28;20200;-70
2022/08/06 06:44:58;;;;;;;11.90;9.80;;;;;;;16.55;99.40;94599.69;5001183;28;20200;-73
2022/08/06 06:47:49;;;;;;;10.27;9.17;;;;;;;16.57;98.39;94597.00;5009838;28;20203;-74
2022/08/06 06:50:37;;;;;;;10.27;9.27;;;;;;;16.39;97.08;94593.06;5006757;28;20214;-72
2022/08/06 06:53:28;;;;;;;13.10;10.43;;;;;;;16.50;96.83;94602.91;4997915;28;20322;-71
2022/08/06 06:56:16;;;;;;;12.50;11.20;;;;;;;16.41;94.55;94601.69;4997912;28;20334;-71
2022/08/06 06:59:06;;;;;;;11.53;10.43;;;;;;;16.22;96.58;94607.59;5004087;28;20203;-70
2022/08/06 07:01:53;;;;;;;12.00;10.87;;;;;;;16.00;96.80;94606.94;4995920;28;20669;-70
2022/08/06 07:04:38;;;;;;;12.17;11.10;;;;;;;16.12;96.35;94607.69;5003466;28;20278;-72
2022/08/06 07:07:24;;;;;;;11.23;10.23;;;;;;;15.99;96.82;94608.28;5006800;28;20609;-70
2022/08/06 07:10:11;;;;;;;11.50;10.27;;;;;;;15.91;96.75;94609.88;4996165;28;20230;-70
2022/08/06 07:12:58;;;;;;;10.80;9.77;;;;;;;15.95;96.88;94602.38;5003973;28;20770;-70
2022/08/06 07:15:42;;;;;;;10.27;9.13;;;;;;;15.92;96.63;94605.72;4992963;28;20205;-71
2022/08/06 07:18:28;;;;;;;17.90;9.40;;;;;;;16.13;95.35;94605.59;5009429;28;20199;-73
2022/08/06 07:21:14;;;;;;;9.70;8.80;;;;;;;16.00;95.07;94603.38;5006315;28;20207;-73
2022/08/06 07:23:59;;;;;;;11.23;9.00;;;;;;;16.09;94.40;94616.66;5015256;28;20649;-70
2022/08/06 07:26:46;;;;;;;11.93;9.13;;;;;;;15.78;94.52;94611.94;5008418;28;20200;-72
2022/08/06 07:29:31;;;;;;;10.67;9.60;;;;;;;15.71;94.14;94612.91;4996491;28;20200;-69
2022/08/06 07:32:15;;;;;;;12.20;9.80;;;;;;;15.92;92.44;94619.84;5000299;28;20208;-71
2022/08/06 07:35:02;;;;;;;14.37;11.03;;;;;;;15.95;92.15;94622.19;4998743;28;20250;-70
2022/08/06 07:38:04;;;;;;;13.10;11.87;;;;;;;15.82;91.56;94628.41;4999770;28;20204;-75
2022/08/06 07:40:53;;;;;;;13.10;11.87;;;;;;;15.82;91.75;94634.06;5005337;28;20203;-70
2022/08/06 07:43:51;;;;;;;18.20;12.73;;;;;;;15.56;92.12;94629.56;4996109;28;20236;-72
2022/08/06 07:46:41;;;;;;;15.23;13.73;;;;;;;15.41;94.28;94636.38;4995422;28;20200;-72
2022/08/06 07:49:31;;;;;;;16.67;14.63;;;;;;;15.39;95.40;94648.25;4999521;28;20200;-73
2022/08/06 07:52:16;;;;;;;19.80;17.27;;;;;;;15.34;95.91;94643.72;5010748;28;20360;-71
2022/08/06 07:55:00;;;;;;;25.80;18.87;;;;;;;15.36;96.65;94646.66;5001796;28;20274;-73
2022/08/06 07:57:44;;;;;;;18.80;15.47;;;;;;;15.41;96.43;94649.75;5007245;28;20206;-70
2022/08/06 08:00:29;;;;;;;16.53;14.90;;;;;;;15.51;95.49;94651.13;5002915;28;20211;-72
2022/08/06 08:06:18;;;;;;;15.53;14.00;;;;;;;15.67;94.10;94646.56;5008107;28;20238;-73
2022/08/06 08:09:06;;;;;;;24.30;15.27;;;;;;;15.57;93.83;94653.63;5005552;28;20204;-70
2022/08/06 08:11:51;;;;;;;15.00;13.53;;;;;;;15.98;91.77;94656.97;5001327;28;20319;-71
2022/08/06 08:14:36;;;;;;;16.47;14.70;;;;;;;16.20;91.83;94661.19;5002214;28;20260;-70
2022/08/06 08:17:20;;;;;;;17.37;15.50;;;;;;;16.06;92.46;94663.13;4999696;28;20201;-71
2022/08/06 08:20:06;;;;;;;17.17;14.63;;;;;;;16.21;91.35;94662.66;4998097;28;20204;-70
2022/08/06 08:22:50;;;;;;;16.17;14.47;;;;;;;16.10;92.38;94661.31;5005837;28;20200;-70
2022/08/06 08:25:34;;;;;;;16.60;14.90;;;;;;;16.21;93.76;94673.22;5005546;28;20203;-70
2022/08/06 08:28:18;;;;;;;16.37;13.70;;;;;;;16.16;90.96;94672.25;4996364;28;20204;-72
2022/08/06 08:31:03;;;;;;;17.37;15.57;;;;;;;16.09;91.58;94676.78;5004078;28;20204;-72
2022/08/06 08:33:47;;;;;;;15.27;13.77;;;;;;;15.98;91.60;94662.63;5003864;28;20220;-73
2022/08/06 08:36:31;;;;;;;18.20;15.13;;;;;;;15.96;92.00;94682.28;5000545;28;20246;-71
2022/08/06 08:39:15;;;;;;;17.93;15.77;;;;;;;15.69;93.21;94683.41;5006726;28;20227;-72
2022/08/06 08:42:18;;;;;;;19.10;17.20;;;;;;;15.80;94.48;94681.25;5004986;28;20286;-74
2022/08/06 08:45:03;;;;;;;19.43;17.63;;;;;;;16.04;92.22;94682.78;5001221;28;20200;-70
2022/08/06 08:47:52;;;;;;;26.37;20.80;;;;;;;16.01;92.35;94684.75;5010736;28;20285;-71
2022/08/06 08:50:40;;;;;;;22.70;20.40;;;;;;;15.99;92.85;94690.25;4997629;28;20204;-70
2022/08/06 08:53:40;;;;;;;24.37;19.97;;;;;;;15.85;93.35;94697.84;4996933;28;20637;-71
2022/08/06 08:56:24;;;;;;;21.97;19.67;;;;;;;15.95;91.48;94692.09;5002801;28;20664;-73
2022/08/06 08:59:10;;;;;;;26.27;21.37;;;;;;;15.94;94.17;94691.34;5008702;28;20301;-71
2022/08/06 09:01:54;;;;;;;22.90;20.60;;;;;;;15.85;94.52;94694.28;5007729;28;20204;-71
2022/08/06 09:04:40;;;;;;;25.50;21.97;;;;;;;15.92;95.06;94693.34;5004727;28;20220;-72
2022/08/06 09:07:26;;;;;;;23.63;20.77;;;;;;;16.00;92.26;94696.66;4999568;28;20235;-71
2022/08/06 09:10:10;;;;;;;24.60;21.10;;;;;;;15.88;93.21;94693.06;5004952;28;20204;-70
2022/08/06 09:12:55;;;;;;;24.53;21.93;;;;;;;16.18;92.43;94689.31;5008605;28;20208;-72
2022/08/06 09:15:40;;;;;;;21.87;18.97;;;;;;;16.22;90.02;94695.25;4996076;28;20205;-73
2022/08/06 09:18:25;;;;;;;24.37;21.27;;;;;;;16.37;90.78;94694.03;5007561;28;20200;-71
2022/08/06 09:21:10;;;;;;;22.57;20.40;;;;;;;16.75;87.88;94701.34;5005077;28;20216;-71
2022/08/06 09:23:55;;;;;;;21.57;19.47;;;;;;;16.57;88.32;94703.78;5010215;28;20239;-72
2022/08/06 09:27:05;;;;;;;21.40;19.13;;;;;;;16.89;86.20;94705.03;5010990;28;20208;-71
2022/08/06 09:29:53;;;;;;;21.57;19.57;;;;;;;16.90;86.58;94700.84;5003416;28;20286;-71
2022/08/06 09:32:45;;;;;;;20.33;18.33;;;;;;;16.85;85.07;94697.03;4992853;28;20223;-71
2022/08/06 09:35:30;;;;;;;19.67;17.67;;;;;;;16.92;84.35;94700.97;5009687;28;20243;-71
2022/08/06 09:38:15;;;;;;;20.67;18.57;;;;;;;17.41;83.01;94698.91;5004154;28;20543;-71
2022/08/06 09:41:10;;;;;;;19.70;17.17;;;;;;;17.39;81.48;94705.22;5007857;28;20228;-72
2022/08/06 09:43:57;;;;;;;18.90;16.97;;;;;;;17.10;84.38;94702.03;4996927;28;20212;-71
2022/08/06 09:46:46;;;;;;;19.13;17.33;;;;;;;17.20;84.01;94708.34;5001949;28;20200;-72
2022/08/06 09:49:44;;;;;;;20.03;17.93;;;;;;;17.47;84.20;94712.69;5004858;28;20203;-71
2022/08/06 09:52:28;;;;;;;19.43;17.70;;;;;;;17.24;84.11;94708.56;5001444;28;20204;-72
2022/08/06 09:55:29;;;;;;;17.47;15.80;;;;;;;16.77;85.59;94710.72;5004635;28;20696;-71
2022/08/06 09:58:13;;;;;;;18.23;16.43;;;;;;;17.25;84.06;94717.81;5002672;28;20211;-70
2022/08/06 10:01:11;;;;;;;18.77;16.97;;;;;;;17.23;82.54;94724.06;5007571;28;20212;-69
2022/08/06 10:03:56;;;;;;;20.03;17.87;;;;;;;17.51;81.63;94722.19;4997013;28;20223;-71
2022/08/06 10:06:56;;;;;;;19.47;17.57;;;;;;;17.55;81.69;94724.50;5006061;28;20279;-71
2022/08/06 10:09:56;;;;;;;21.50;18.23;;;;;;;17.47;82.55;94721.19;4991670;28;20444;-71
2022/08/06 10:12:40;;;;;;;23.33;16.93;;;;;;;17.52;80.81;94717.25;4998467;28;20208;-71
2022/08/06 10:15:29;;;;;;;18.13;16.17;;;;;;;17.33;81.53;94724.69;5001607;28;20203;-72
2022/08/06 10:18:47;;;;;;;19.13;17.13;;;;;;;17.27;84.19;94721.50;5002017;28;20203;-72
2022/08/06 10:21:34;;;;;;;19.90;17.87;;;;;;;17.34;82.18;94731.81;5009489;28;20204;-71
2022/08/06 10:24:20;;;;;;;19.60;17.80;;;;;;;17.44;84.30;94740.19;4997809;28;20288;-71
2022/08/06 10:27:09;;;;;;;19.23;17.27;;;;;;;17.26;83.33;94742.69;4998429;28;20641;-73
2022/08/06 10:29:58;;;;;;;20.10;17.93;;;;;;;17.05;84.60;94739.97;4997948;28;20228;-73
2022/08/06 10:32:51;;;;;;;19.63;17.70;;;;;;;16.84;84.64;94737.28;5004338;28;20227;-73
2022/08/06 10:35:36;;;;;;;19.53;17.37;;;;;;;17.20;84.60;94739.47;5005420;28;20251;-72
2022/08/06 10:38:25;;;;;;;22.43;18.17;;;;;;;16.94;89.66;94740.72;5000997;28;20621;-71
2022/08/06 10:41:11;;;;;;;17.13;15.33;;;;;;;17.03;85.59;94737.03;5007557;28;20207;-72
2022/08/06 10:43:56;;;;;;;19.87;17.87;;;;;;;17.31;84.12;94735.91;4997577;28;20195;-73
2022/08/06 10:46:42;;;;;;;18.73;16.93;;;;;;;17.47;83.15;94736.09;4992957;28;20724;-71
2022/08/06 10:49:27;;;;;;;18.90;17.10;;;;;;;17.63;80.87;94733.50;4997270;28;20195;-72
2022/08/06 10:52:12;;;;;;;19.43;17.53;;;;;;;17.50;82.24;94726.38;5008427;28;20283;-75
2022/08/06 10:54:59;;;;;;;19.67;17.63;;;;;;;17.52;82.37;94722.94;4998956;28;20584;-72
2022/08/06 10:57:44;;;;;;;19.60;17.83;;;;;;;17.57;81.86;94719.69;4993148;28;20259;-72
2022/08/06 11:00:33;;;;;;;19.60;17.67;;;;;;;17.82;79.55;94730.38;5005254;28;20208;-72
2022/08/06 11:03:21;;;;;;;19.60;17.50;;;;;;;18.07;78.55;94727.56;4997884;28;20196;-70
2022/08/06 11:06:28;;;;;;;18.63;16.83;;;;;;;17.87;78.70;94728.50;5001917;28;20223;-73
2022/08/06 11:09:49;;;;;;;19.53;17.63;;;;;;;17.87;80.32;94729.25;5005642;28;20677;-73
2022/08/06 11:13:04;;;;;;;20.30;18.17;;;;;;;17.78;79.90;94722.34;4996425;28;20200;-73
2022/08/06 11:15:49;;;;;;;20.53;18.57;;;;;;;18.13;78.97;94710.88;4994299;28;20215;-73
2022/08/06 11:18:34;;;;;;;19.47;17.27;;;;;;;17.92;80.30;94711.09;4997834;28;20255;-70
2022/08/06 11:21:42;;;;;;;21.00;17.60;;;;;;;18.12;79.04;94712.22;5005662;28;20202;-72
2022/08/06 11:24:26;;;;;;;19.50;17.63;;;;;;;18.06;79.37;94705.47;5006451;28;20211;-72
2022/08/06 11:27:49;;;;;;;20.30;18.20;;;;;;;18.22;80.04;94711.31;5005869;28;20663;-73
2022/08/06 11:30:43;;;;;;;18.53;16.73;;;;;;;17.86;81.12;94715.69;5003857;28;20196;-71
2022/08/06 11:33:33;;;;;;;19.07;17.33;;;;;;;18.23;78.90;94712.78;5002874;28;20306;-73
2022/08/06 11:36:25;;;;;;;18.37;16.67;;;;;;;18.02;80.01;94705.97;5008011;28;20564;-71
2022/08/06 11:39:09;;;;;;;18.13;16.03;;;;;;;17.95;79.75;94706.28;5011856;28;20203;-71
2022/08/06 11:41:54;;;;;;;16.83;15.33;;;;;;;18.18;79.20;94706.91;5010076;28;20199;-72
2022/08/06 11:45:02;;;;;;;18.90;17.00;;;;;;;17.86;80.91;94707.91;5001412;28;20205;-72
2022/08/06 11:48:17;;;;;;;18.83;16.97;;;;;;;17.47;83.08;94709.84;4998275;28;20196;-71
2022/08/06 11:51:42;;;;;;;17.93;16.13;;;;;;;17.57;84.00;94710.47;5006088;28;20207;-72
2022/08/06 11:54:36;;;;;;;20.17;16.40;;;;;;;18.15;80.08;94708.13;4997174;28;20229;-72
2022/08/06 11:57:20;;;;;;;16.87;15.37;;;;;;;18.53;78.18;94711.63;5010254;28;20207;-71
2022/08/06 12:00:09;;;;;;;17.90;16.10;;;;;;;18.49;77.46;94708.56;5009141;28;20211;-75
2022/08/06 12:02:57;;;;;;;18.13;16.37;;;;;;;18.27;78.58;94713.03;5008999;28;20270;-73
2022/08/06 12:05:42;;;;;;;17.13;15.53;;;;;;;18.46;78.96;94713.38;5008093;28;20226;-75
2022/08/06 12:08:27;;;;;;;16.57;14.93;;;;;;;18.83;75.70;94716.09;5010020;28;20211;-73
2022/08/06 12:11:30;;;;;;;16.63;14.97;;;;;;;18.46;76.17;94706.97;4998854;28;20530;-71
2022/08/06 12:14:40;;;;;;;16.63;14.93;;;;;;;18.10;77.96;94714.94;5009798;28;20234;-74
2022/08/06 12:17:27;;;;;;;17.40;15.60;;;;;;;18.00;80.08;94714.41;5005688;28;20200;-72
2022/08/06 12:20:11;;;;;;;16.80;15.17;;;;;;;18.04;79.81;94713.88;4998387;28;20210;-72
2022/08/06 12:22:55;;;;;;;17.50;15.90;;;;;;;18.19;78.26;94719.72;5006368;28;20554;-69
2022/08/06 12:25:41;;;;;;;17.40;15.47;;;;;;;18.14;79.69;94718.03;4999795;28;20208;-75
2022/08/06 12:28:26;;;;;;;18.13;16.43;;;;;;;17.87;80.98;94717.91;5000069;28;20200;-72
2022/08/06 12:31:10;;;;;;;17.23;15.53;;;;;;;18.03;79.88;94706.72;5006645;28;20215;-76
2022/08/06 12:33:54;;;;;;;17.17;15.43;;;;;;;18.36;78.66;94697.91;4999673;28;20216;-73
2022/08/06 12:36:39;;;;;;;17.57;15.80;;;;;;;18.11;78.94;94699.41;5001659;28;20199;-73
2022/08/06 12:40:23;;;;;;;18.37;16.33;;;;;;;17.97;78.96;94692.19;5006209;28;20749;-71
2022/08/06 12:42:28;;;;;;;18.53;16.77;;;;;;;18.73;79.44;94690.03;4993960;28;20287;-73
2022/08/06 12:45:12;;;;;;;17.40;15.60;;;;;;;18.59;79.51;94692.09;5000963;28;20481;-73
2022/08/06 12:48:07;;;;;;;15.27;13.67;;;;;;;18.55;77.33;94686.22;5001211;28;20258;-74
2022/08/06 12:51:11;;;;;;;16.17;14.67;;;;;;;18.20;78.84;94692.09;5001044;28;20203;-72
2022/08/06 12:54:03;;;;;;;15.13;13.53;;;;;;;18.36;78.62;94686.56;5001829;28;20219;-71
2022/08/06 12:56:48;;;;;;;16.03;14.53;;;;;;;18.47;78.60;94685.75;5004840;28;20763;-71
2022/08/06 12:59:33;;;;;;;15.27;13.80;;;;;;;19.11;75.43;94684.88;5006378;28;20208;-73
2022/08/06 13:02:19;;;;;;;15.20;13.70;;;;;;;19.12;75.88;94681.44;5005710;28;20668;-71
2022/08/06 13:05:03;;;;;;;14.23;12.87;;;;;;;19.31;74.79;94678.16;5007398;28;20223;-71